Time;durP1;ratioP1;P1;durP2;ratioP2;P2;SDS_P1;SDS_P2;PMS_P1;PMS_P2;Temp;Humidity;BMP_temperature;BMP_pressure;BME280_temperature;BME280_humidity;BME280_pressure;Samples;Min_cycle;Max_cycle;Signal;HPM_P1;HPM_P2
2022/01/17 00:00:19;;;;;;;26.70;18.00;;;;;;;1.82;96.38;99530.63;103521;1302;24229;-30
2022/01/17 00:02:47;;;;;;;20.80;13.30;;;;;;;2.26;94.98;99527.02;103586;1300;24343;-29
2022/01/17 00:05:13;;;;;;;27.80;14.00;;;;;;;2.05;94.90;99521.69;103583;1300;24208;-29
2022/01/17 00:07:39;;;;;;;22.40;9.20;;;;;;;1.98;95.14;99511.73;103649;1300;24223;-31
2022/01/17 00:10:05;;;;;;;22.20;6.30;;;;;;;2.27;94.87;99507.48;103510;1300;24289;-30
2022/01/17 00:12:35;;;;;;;16.70;8.70;;;;;;;2.05;94.69;99503.80;103530;1300;24299;-25
2022/01/17 00:15:10;;;;;;;19.10;12.60;;;;;;;1.94;95.31;99492.13;103554;1300;24217;-30
2022/01/17 00:17:39;;;;;;;27.40;16.80;;;;;;;1.91;95.66;99493.78;103577;1300;24247;-30
2022/01/17 00:20:10;;;;;;;21.70;15.30;;;;;;;2.45;93.36;99494.70;103563;1300;25355;-30
2022/01/17 00:22:36;;;;;;;23.50;14.30;;;;;;;2.51;92.48;99472.74;103558;1300;22515;-25
2022/01/17 00:25:03;;;;;;;30.30;21.20;;;;;;;2.69;91.41;99468.38;103563;1299;24353;-26
2022/01/17 00:27:31;;;;;;;30.90;18.40;;;;;;;2.57;91.27;99472.32;103593;1300;24011;-25
2022/01/17 00:29:57;;;;;;;29.20;17.90;;;;;;;2.44;92.19;99475.00;103616;1300;22827;-29
2022/01/17 00:32:23;;;;;;;34.00;22.10;;;;;;;2.50;91.66;99467.30;103550;1300;22570;-31
2022/01/17 00:34:49;;;;;;;23.50;14.20;;;;;;;2.49;91.59;99457.02;103532;1300;24377;-25
2022/01/17 00:37:15;;;;;;;13.50;7.90;;;;;;;2.42;92.08;99450.95;103571;1300;24368;-30
2022/01/17 00:39:41;;;;;;;23.20;10.10;;;;;;;2.29;92.44;99448.15;103533;1300;24205;-25
2022/01/17 00:42:07;;;;;;;21.20;11.90;;;;;;;2.27;92.39;99448.27;103478;1300;24200;-29
2022/01/17 00:44:33;;;;;;;25.60;13.90;;;;;;;2.19;93.13;99437.88;103592;1300;24451;-30
2022/01/17 00:47:00;;;;;;;21.90;12.90;;;;;;;2.45;91.78;99433.17;103524;1300;22512;-24
2022/01/17 00:49:26;;;;;;;26.30;13.20;;;;;;;2.43;91.78;99436.73;103602;1300;24327;-31
2022/01/17 00:51:53;;;;;;;13.80;7.90;;;;;;;2.65;90.41;99442.25;103548;1300;24193;-29
2022/01/17 00:54:19;;;;;;;16.60;10.30;;;;;;;2.22;91.85;99439.71;103557;1300;24196;-24
2022/01/17 00:56:46;;;;;;;12.20;9.60;;;;;;;2.57;90.91;99425.89;103615;1302;24249;-27
2022/01/17 00:59:12;;;;;;;27.30;18.30;;;;;;;2.48;90.79;99422.67;103565;1300;24309;-26
2022/01/17 01:01:38;;;;;;;26.60;18.60;;;;;;;2.83;89.14;99421.05;103558;1300;24229;-29
2022/01/17 01:04:04;;;;;;;17.20;10.70;;;;;;;2.87;88.02;99418.39;103593;1300;24197;-25
2022/01/17 01:06:30;;;;;;;20.60;16.40;;;;;;;2.81;88.70;99419.00;103588;1301;24339;-29
2022/01/17 01:08:57;;;;;;;15.30;11.20;;;;;;;2.70;88.49;99406.80;103642;1300;24462;-26
2022/01/17 01:11:22;;;;;;;17.30;11.80;;;;;;;2.85;88.33;99412.98;103545;1300;24250;-24
2022/01/17 01:13:49;;;;;;;23.90;15.60;;;;;;;2.89;87.61;99414.52;103555;1300;22524;-24
2022/01/17 01:28:38;;;;;;;15.40;10.50;;;;;;;2.77;88.32;99396.34;103541;1300;24484;-25
2022/01/17 01:31:10;;;;;;;12.00;6.70;;;;;;;2.66;87.83;99386.33;103554;1300;24218;-29
2022/01/17 01:33:40;;;;;;;12.70;7.60;;;;;;;2.45;89.21;99392.17;103540;1300;24448;-24
2022/01/17 01:36:13;;;;;;;15.30;8.50;;;;;;;2.41;90.56;99380.70;103531;1302;24287;-26
2022/01/17 01:38:41;;;;;;;14.70;7.10;;;;;;;2.01;92.09;99383.02;103541;1300;24420;-29
2022/01/17 01:41:06;;;;;;;15.10;7.90;;;;;;;1.75;93.59;99373.59;103611;1300;22795;-29
2022/01/17 01:43:32;;;;;;;15.20;9.50;;;;;;;1.70;94.61;99375.88;103544;1301;24355;-26
2022/01/17 01:46:01;;;;;;;26.50;13.20;;;;;;;1.80;94.33;99360.67;103570;1302;24219;-25
2022/01/17 01:48:28;;;;;;;14.80;8.80;;;;;;;1.69;94.48;99363.56;103573;1300;24247;-29
2022/01/17 01:50:54;;;;;;;17.10;8.20;;;;;;;1.64;95.36;99362.61;103543;1302;24226;-25
2022/01/17 01:53:22;;;;;;;12.80;6.70;;;;;;;1.50;95.17;99367.10;103517;1302;22511;-24
2022/01/17 01:55:50;;;;;;;10.00;4.40;;;;;;;1.26;96.49;99363.75;103533;1300;24193;-31
2022/01/17 01:58:16;;;;;;;11.40;6.50;;;;;;;1.26;97.02;99365.02;103589;1300;24205;-26
2022/01/17 02:00:42;;;;;;;15.00;8.30;;;;;;;1.50;96.48;99362.45;103571;1300;24221;-29
2022/01/17 02:03:08;;;;;;;18.00;8.50;;;;;;;1.73;94.95;99366.95;103564;1300;24343;-25
2022/01/17 02:05:34;;;;;;;14.30;8.80;;;;;;;1.41;96.25;99357.67;103624;1300;22518;-29
2022/01/17 02:08:00;;;;;;;15.40;7.00;;;;;;;1.48;96.27;99351.22;103524;1300;24174;-29
2022/01/17 02:10:26;;;;;;;14.70;6.90;;;;;;;1.42;96.81;99349.60;103522;1301;24335;-29
2022/01/17 02:12:52;;;;;;;14.60;7.80;;;;;;;1.45;96.99;99351.64;103515;1300;24363;-25
2022/01/17 02:15:18;;;;;;;17.00;9.00;;;;;;;1.64;97.15;99343.40;103540;1302;24207;-29
2022/01/17 02:17:46;;;;;;;17.10;11.00;;;;;;;1.85;95.68;99338.95;103506;1300;24226;-26
2022/01/17 02:20:17;;;;;;;15.50;9.10;;;;;;;1.85;95.20;99334.73;103585;1300;24212;-25
2022/01/17 02:22:43;;;;;;;10.70;7.90;;;;;;;2.16;94.24;99337.02;103577;1300;24327;-29
2022/01/17 02:25:09;;;;;;;14.40;6.40;;;;;;;2.26;93.89;99318.52;103590;1300;24339;-25
2022/01/17 02:27:35;;;;;;;22.90;15.60;;;;;;;2.42;93.81;99324.10;103579;1300;24198;-25
2022/01/17 02:30:02;;;;;;;24.00;14.30;;;;;;;2.82;91.91;99317.07;103596;1300;24232;-29
2022/01/17 02:32:28;;;;;;;29.80;16.40;;;;;;;2.99;90.31;99312.57;103507;1300;24221;-25
2022/01/17 02:35:10;;;;;;;18.50;14.90;;;;;;;2.71;91.28;99317.91;103572;1300;24410;-28
2022/01/17 02:37:36;;;;;;;12.80;10.60;;;;;;;2.80;90.79;99303.61;103608;1300;24384;-29
2022/01/17 02:40:02;;;;;;;21.20;15.70;;;;;;;2.73;91.37;99309.05;103601;1300;24292;-26
2022/01/17 02:42:28;;;;;;;16.70;9.50;;;;;;;2.80;91.25;99312.48;103517;1300;24220;-25
2022/01/17 02:44:59;;;;;;;24.80;14.20;;;;;;;2.75;91.45;99310.34;103522;1300;24378;-25
2022/01/17 02:47:25;;;;;;;13.10;9.40;;;;;;;3.00;89.91;99313.84;103512;1300;25248;-29
2022/01/17 02:49:51;;;;;;;21.20;14.60;;;;;;;2.85;90.45;99305.81;103568;1300;22522;-25
2022/01/17 02:52:19;;;;;;;17.50;14.50;;;;;;;3.18;88.81;99303.43;103491;1300;24217;-29
2022/01/17 02:54:46;;;;;;;15.20;13.60;;;;;;;3.23;88.33;99294.05;103573;1300;24213;-25
2022/01/17 02:57:12;;;;;;;11.00;8.60;;;;;;;3.03;88.91;99293.05;103541;1300;22520;-25
2022/01/17 02:59:38;;;;;;;14.80;9.10;;;;;;;3.15;88.50;99295.11;103566;1300;24223;-26
2022/01/17 03:02:05;;;;;;;13.80;11.40;;;;;;;2.88;89.24;99285.70;103562;1300;24221;-24
2022/01/17 03:04:32;;;;;;;17.20;9.40;;;;;;;3.12;88.69;99279.72;103538;1300;24327;-24
2022/01/17 03:06:59;;;;;;;17.40;10.60;;;;;;;3.33;86.92;99285.66;103612;1300;26421;-27
2022/01/17 03:09:29;;;;;;;12.80;8.20;;;;;;;3.31;86.89;99274.48;103587;1300;22628;-25
2022/01/17 03:11:55;;;;;;;21.40;11.80;;;;;;;3.29;87.39;99268.56;103481;1300;23234;-30
2022/01/17 03:14:20;;;;;;;14.50;11.20;;;;;;;3.63;85.72;99251.52;103513;1300;24257;-29
2022/01/17 03:16:48;;;;;;;11.10;9.50;;;;;;;3.40;86.16;99250.23;103521;1300;24381;-25
2022/01/17 03:19:15;;;;;;;15.10;10.60;;;;;;;3.23;87.26;99250.94;103412;1300;22514;-29
2022/01/17 03:21:41;;;;;;;11.30;8.40;;;;;;;3.53;85.95;99252.20;103556;1300;24286;-29
2022/01/17 03:24:07;;;;;;;18.30;12.90;;;;;;;3.21;87.30;99256.39;103549;1300;24259;-24
2022/01/17 03:26:33;;;;;;;16.40;11.50;;;;;;;3.24;87.62;99259.49;103628;1300;24317;-31
2022/01/17 03:29:01;;;;;;;12.70;7.30;;;;;;;3.08;88.35;99258.96;103579;1300;24220;-27
2022/01/17 03:31:27;;;;;;;17.80;11.80;;;;;;;3.14;88.77;99249.69;103521;1300;22508;-25
2022/01/17 03:33:52;;;;;;;10.10;7.10;;;;;;;3.49;87.66;99239.11;103599;1302;22720;-27
2022/01/17 03:36:18;;;;;;;19.20;11.70;;;;;;;3.04;88.97;99242.89;103408;1301;24394;-29
2022/01/17 03:38:44;;;;;;;15.30;7.20;;;;;;;3.24;89.03;99237.89;103516;1302;24225;-32
2022/01/17 03:41:13;;;;;;;17.40;9.40;;;;;;;3.08;89.50;99249.41;103535;1300;24208;-30
2022/01/17 03:43:39;;;;;;;14.30;12.70;;;;;;;3.18;89.77;99237.14;103570;1300;24390;-24
2022/01/17 03:46:04;;;;;;;9.90;8.30;;;;;;;3.22;89.34;99234.88;103524;1300;24200;-27
2022/01/17 03:48:31;;;;;;;19.80;11.50;;;;;;;2.94;90.60;99241.42;103526;1302;24178;-30
2022/01/17 03:50:58;;;;;;;19.00;12.80;;;;;;;2.96;90.48;99228.15;103607;1300;24401;-24
2022/01/17 03:53:24;;;;;;;18.20;14.20;;;;;;;3.04;89.83;99221.15;103561;1300;22515;-27
2022/01/17 03:55:51;;;;;;;14.90;10.60;;;;;;;3.21;89.48;99218.00;103542;1300;25401;-30
2022/01/17 03:58:17;;;;;;;19.40;12.70;;;;;;;3.06;89.88;99212.85;103556;1300;24256;-26
2022/01/17 04:00:46;;;;;;;10.30;9.20;;;;;;;3.48;87.82;99217.61;103555;1300;24294;-26
2022/01/17 04:03:12;;;;;;;10.00;8.80;;;;;;;3.32;88.01;99223.13;103534;1300;24173;-28
2022/01/17 04:05:38;;;;;;;16.10;13.10;;;;;;;3.19;89.35;99210.59;103639;1300;24321;-30
2022/01/17 04:08:05;;;;;;;16.60;10.90;;;;;;;3.49;88.35;99216.64;103490;1301;24206;-25
2022/01/17 04:10:31;;;;;;;21.90;17.10;;;;;;;3.17;89.15;99220.34;103242;1300;630619;-30
2022/01/17 04:13:01;;;;;;;10.40;7.90;;;;;;;3.06;90.05;99198.15;103494;1300;24248;-24
2022/01/17 04:15:28;;;;;;;13.70;8.80;;;;;;;3.28;90.02;99199.67;103541;1301;22771;-25
2022/01/17 04:17:55;;;;;;;13.50;11.40;;;;;;;3.20;89.58;99191.36;103558;1300;22901;-25
2022/01/17 04:22:53;;;;;;;17.30;13.00;;;;;;;3.45;88.58;99192.96;103539;1300;24769;-25
2022/01/17 04:25:21;;;;;;;15.20;12.30;;;;;;;3.53;87.55;99180.23;103639;1300;24264;-25
2022/01/17 04:27:48;;;;;;;18.70;12.50;;;;;;;3.35;88.18;99179.14;103516;1300;24241;-29
2022/01/17 04:30:14;;;;;;;13.40;9.60;;;;;;;3.20;88.92;99180.08;103529;1300;24162;-27
2022/01/17 04:32:41;;;;;;;18.70;7.30;;;;;;;3.25;89.22;99184.04;103575;1300;24253;-27
2022/01/17 04:35:08;;;;;;;15.00;9.80;;;;;;;3.38;88.50;99184.52;103564;1300;24276;-29
2022/01/17 04:37:34;;;;;;;12.20;8.50;;;;;;;3.23;88.89;99190.55;103593;1300;24539;-25
2022/01/17 04:40:00;;;;;;;17.90;15.00;;;;;;;3.40;88.37;99181.48;103431;1300;24190;-29
2022/01/17 04:42:28;;;;;;;15.80;13.20;;;;;;;3.57;87.49;99169.41;103526;1300;24362;-25
2022/01/17 04:47:24;;;;;;;7.10;6.00;;;;;;;3.51;87.89;99166.35;103548;1300;24332;-30
2022/01/17 04:49:50;;;;;;;16.00;12.10;;;;;;;3.45;87.84;99172.44;103520;1300;24382;-29
2022/01/17 04:52:16;;;;;;;18.00;12.80;;;;;;;3.22;88.77;99171.80;103567;1300;24198;-27
2022/01/17 04:54:45;;;;;;;19.50;13.90;;;;;;;3.40;88.56;99170.63;103596;1300;24223;-30
2022/01/17 05:00:52;;;;;;;12.30;9.20;;;;;;;3.35;88.44;99140.20;103516;1300;23798;-29
2022/01/17 05:03:22;;;;;;;13.40;8.70;;;;;;;3.42;87.61;99135.35;103562;1300;22613;-25
2022/01/17 05:05:48;;;;;;;10.50;8.70;;;;;;;3.60;86.50;99125.45;103512;1300;24223;-29
2022/01/17 05:08:14;;;;;;;11.50;9.70;;;;;;;3.45;87.17;99137.45;103588;1300;24198;-27
2022/01/17 05:10:43;;;;;;;12.60;8.80;;;;;;;3.47;87.14;99135.43;103552;1301;24295;-25
2022/01/17 05:13:10;;;;;;;9.30;7.10;;;;;;;3.53;86.52;99133.60;103545;1300;24247;-29
2022/01/17 05:15:44;;;;;;;9.30;5.00;;;;;;;3.57;86.39;99141.75;103577;1300;24306;-25
2022/01/17 05:20:37;;;;;;;11.70;9.50;;;;;;;3.52;86.14;99124.14;103602;1300;24392;-30
2022/01/17 05:23:03;;;;;;;17.70;12.80;;;;;;;3.65;86.46;99131.41;103535;1300;24257;-25
2022/01/17 05:25:30;;;;;;;11.30;7.70;;;;;;;3.43;87.24;99120.44;103546;1300;26148;-25
2022/01/17 05:27:55;;;;;;;14.80;8.40;;;;;;;3.46;87.26;99110.90;103589;1301;24334;-30
2022/01/17 05:30:22;;;;;;;9.70;8.20;;;;;;;3.24;88.25;99109.50;103581;1300;24194;-24
2022/01/17 05:32:48;;;;;;;7.20;6.20;;;;;;;3.28;87.74;99116.67;103465;1300;24252;-26
2022/01/17 05:35:14;;;;;;;11.30;9.00;;;;;;;3.29;87.82;99112.66;103588;1300;24163;-26
2022/01/17 05:37:40;;;;;;;12.40;10.60;;;;;;;3.36;87.66;99108.75;103589;1300;24272;-29
2022/01/17 05:40:07;;;;;;;10.30;7.30;;;;;;;3.40;87.51;99098.63;103553;1300;22827;-26
2022/01/17 05:42:33;;;;;;;12.00;8.30;;;;;;;3.52;87.20;99100.61;103564;1300;24227;-30
2022/01/17 05:44:59;;;;;;;12.00;8.30;;;;;;;3.26;87.74;99108.52;103515;1300;24215;-30
2022/01/17 05:47:25;;;;;;;10.70;9.70;;;;;;;3.36;87.48;99093.20;103557;1300;24173;-25
2022/01/17 05:49:51;;;;;;;9.30;4.30;;;;;;;3.48;87.05;99088.05;103540;1300;24234;-28
2022/01/17 05:52:17;;;;;;;8.10;6.50;;;;;;;3.34;87.85;99075.70;103520;1301;24251;-30
2022/01/17 05:54:43;;;;;;;11.10;7.90;;;;;;;3.21;88.41;99079.48;103464;1302;24301;-27
2022/01/17 05:57:09;;;;;;;8.70;7.00;;;;;;;3.32;88.44;99084.61;103584;1300;24321;-30
2022/01/17 05:59:35;;;;;;;9.20;3.70;;;;;;;3.32;89.18;99101.03;103556;1300;24251;-30
2022/01/17 06:02:01;;;;;;;19.00;11.00;;;;;;;3.20;89.59;99093.44;103531;1302;22502;-26
2022/01/17 06:04:27;;;;;;;12.70;10.20;;;;;;;3.16;89.34;99095.98;103581;1300;24354;-26
2022/01/17 06:06:53;;;;;;;11.10;6.30;;;;;;;3.18;89.69;99088.02;103576;1300;24420;-25
2022/01/17 06:09:18;;;;;;;14.80;6.40;;;;;;;3.06;90.43;99087.91;103558;1300;24219;-25
2022/01/17 06:11:44;;;;;;;10.10;6.90;;;;;;;3.01;90.86;99075.00;103588;1300;24237;-25
2022/01/17 06:14:15;;;;;;;10.80;7.30;;;;;;;3.18;89.87;99060.89;103548;1300;24223;-30
2022/01/17 06:16:41;;;;;;;12.70;9.10;;;;;;;2.99;90.49;99055.27;103618;1301;22864;-25
2022/01/17 06:19:07;;;;;;;12.00;9.00;;;;;;;3.15;90.13;99050.09;103624;1300;24181;-25
2022/01/17 06:21:33;;;;;;;12.70;5.30;;;;;;;3.07;90.13;99049.21;103553;1300;24136;-25
2022/01/17 06:24:01;;;;;;;10.90;8.60;;;;;;;2.98;90.73;99034.83;103524;1300;22513;-29
2022/01/17 06:26:27;;;;;;;13.50;5.00;;;;;;;2.86;91.53;99021.47;103597;1300;22599;-29
2022/01/17 06:28:53;;;;;;;13.40;8.40;;;;;;;2.97;90.81;99006.28;103594;1300;24206;-31
2022/01/17 06:31:19;;;;;;;10.90;7.70;;;;;;;3.04;90.64;99010.80;103517;1300;24195;-31
2022/01/17 06:33:45;;;;;;;10.30;6.40;;;;;;;3.04;90.48;98999.36;103573;1300;24412;-25
2022/01/17 06:36:11;;;;;;;16.00;7.70;;;;;;;3.26;89.25;99005.55;103589;1300;24174;-31
2022/01/17 06:38:37;;;;;;;8.50;7.30;;;;;;;3.28;89.18;98994.78;103567;1300;24325;-25
2022/01/17 06:41:02;;;;;;;13.80;8.60;;;;;;;3.18;89.87;99015.95;103516;1302;24167;-30
2022/01/17 06:43:28;;;;;;;9.60;6.40;;;;;;;3.39;88.63;99025.44;103556;1300;24284;-29
2022/01/17 06:45:54;;;;;;;12.90;7.20;;;;;;;3.31;88.90;99026.31;103582;1301;24265;-29
2022/01/17 06:48:21;;;;;;;9.30;7.30;;;;;;;3.46;88.24;99018.85;103504;1300;24175;-31
2022/01/17 06:50:46;;;;;;;9.60;7.80;;;;;;;3.42;88.20;99018.76;103465;1302;24374;-29
2022/01/17 06:53:12;;;;;;;15.70;9.10;;;;;;;3.21;89.37;98993.30;103513;1299;24319;-28
2022/01/17 06:55:38;;;;;;;10.20;7.90;;;;;;;3.43;88.36;98978.14;103533;1302;22513;-31
2022/01/17 06:58:04;;;;;;;12.90;8.80;;;;;;;3.34;88.71;98960.64;103605;1300;26009;-25
2022/01/17 07:00:30;;;;;;;11.70;6.70;;;;;;;3.18;89.33;98950.99;103554;1300;24203;-29
2022/01/17 07:02:56;;;;;;;13.70;8.70;;;;;;;3.09;89.83;98930.89;103506;1300;24335;-25
2022/01/17 07:05:22;;;;;;;10.40;7.60;;;;;;;3.49;88.72;98924.08;103512;1300;24224;-30
2022/01/17 07:07:48;;;;;;;6.40;4.80;;;;;;;3.41;88.46;98919.55;103452;1302;24243;-28
2022/01/17 07:10:15;;;;;;;8.90;7.70;;;;;;;3.49;88.06;98943.76;103521;1300;24192;-29
2022/01/17 07:12:40;;;;;;;13.10;9.60;;;;;;;3.31;88.67;98947.74;103562;1300;24333;-29
2022/01/17 07:15:07;;;;;;;8.70;5.30;;;;;;;3.66;87.68;98954.80;103566;1300;24240;-26
2022/01/17 07:17:34;;;;;;;6.40;3.80;;;;;;;3.57;87.19;98949.98;103592;1300;22513;-29
2022/01/17 07:19:59;;;;;;;5.90;4.80;;;;;;;3.70;86.59;98944.78;103531;1300;24209;-28
2022/01/17 07:22:27;;;;;;;8.50;3.60;;;;;;;3.44;86.78;98970.08;103538;1300;24295;-28
2022/01/17 07:24:54;;;;;;;11.00;7.60;;;;;;;3.58;86.63;98973.87;103560;1300;24310;-25
2022/01/17 07:27:21;;;;;;;8.20;6.20;;;;;;;3.46;86.66;98974.11;103584;1299;23909;-27
2022/01/17 07:29:46;;;;;;;10.30;6.10;;;;;;;3.68;85.68;98977.23;103447;1300;24372;-25
2022/01/17 07:32:12;;;;;;;12.00;6.30;;;;;;;3.92;84.56;98966.77;103454;1300;24326;-25
2022/01/17 07:34:38;;;;;;;4.10;3.10;;;;;;;3.86;84.29;98932.33;103592;1300;24195;-26
2022/01/17 07:37:04;;;;;;;11.20;7.00;;;;;;;3.75;84.47;98901.44;103627;1302;24339;-25
2022/01/17 07:39:30;;;;;;;16.50;7.70;;;;;;;3.85;84.03;98884.65;103498;1300;24338;-27
2022/01/17 07:41:56;;;;;;;16.90;7.50;;;;;;;3.64;85.14;98880.29;103543;1300;24253;-31
2022/01/17 07:44:24;;;;;;;11.50;7.40;;;;;;;3.86;83.95;98876.48;103622;1300;24282;-27
2022/01/17 07:46:55;;;;;;;20.20;8.90;;;;;;;3.83;83.70;98883.74;103532;1300;22615;-29
2022/01/17 07:49:21;;;;;;;23.90;6.80;;;;;;;4.02;83.12;98872.61;103578;1299;24456;-25
2022/01/17 07:51:49;;;;;;;17.10;9.70;;;;;;;4.12;82.33;98882.36;103570;1303;24332;-29
2022/01/17 07:54:16;;;;;;;5.80;4.30;;;;;;;3.95;83.43;98865.08;103576;1300;24314;-26
2022/01/17 07:56:42;;;;;;;14.20;6.30;;;;;;;3.85;83.81;98853.56;103543;1300;24229;-28
2022/01/17 07:59:09;;;;;;;19.30;9.60;;;;;;;3.96;83.75;98869.57;103586;1300;24209;-26
2022/01/17 08:01:35;;;;;;;6.60;5.40;;;;;;;3.83;83.98;98848.70;103618;1300;22520;-29
2022/01/17 08:04:02;;;;;;;13.50;6.60;;;;;;;3.68;85.15;98831.06;103610;1298;24290;-23
2022/01/17 08:06:29;;;;;;;40.50;18.20;;;;;;;3.72;85.17;98827.77;103594;1300;24354;-31
2022/01/17 08:08:57;;;;;;;34.70;16.90;;;;;;;3.72;85.38;98815.33;103548;1300;24307;-29
2022/01/17 08:11:23;;;;;;;22.90;13.70;;;;;;;3.56;85.82;98809.65;103569;1300;22668;-25
2022/01/17 08:13:48;;;;;;;80.20;35.50;;;;;;;3.86;85.05;98771.91;103629;1300;24219;-25
2022/01/17 08:16:15;;;;;;;22.40;12.60;;;;;;;3.84;85.55;98775.92;103576;1300;24282;-25
2022/01/17 08:18:42;;;;;;;17.30;9.20;;;;;;;3.60;86.68;98782.83;103632;1300;24328;-25
2022/01/17 08:21:08;;;;;;;27.00;13.50;;;;;;;3.86;85.51;98767.92;103566;1300;24210;-25
2022/01/17 08:23:33;;;;;;;6.90;4.30;;;;;;;3.78;85.63;98769.04;103576;1300;24298;-25
2022/01/17 08:26:00;;;;;;;32.10;9.20;;;;;;;3.70;86.08;98768.31;103638;1300;22644;-29
2022/01/17 08:28:25;;;;;;;16.20;8.80;;;;;;;3.75;85.48;98781.04;103537;1300;24204;-30
2022/01/17 08:30:51;;;;;;;13.00;6.50;;;;;;;3.78;85.49;98762.86;103502;1303;24385;-30
2022/01/17 08:33:17;;;;;;;6.40;3.50;;;;;;;3.88;84.96;98796.20;103587;1300;24388;-24
2022/01/17 08:35:44;;;;;;;22.90;10.90;;;;;;;3.78;85.88;98799.13;103613;1300;24251;-29
2022/01/17 08:38:10;;;;;;;7.00;5.10;;;;;;;3.73;85.80;98801.31;103710;1300;22975;-24
2022/01/17 08:40:36;;;;;;;10.00;2.30;;;;;;;3.74;85.47;98792.64;103641;1300;24249;-30
2022/01/17 08:43:02;;;;;;;9.60;6.10;;;;;;;3.59;87.01;98770.92;103469;1300;25866;-29
2022/01/17 08:45:29;;;;;;;9.30;4.30;;;;;;;3.72;86.34;98742.78;103551;1300;24170;-26
2022/01/17 08:47:55;;;;;;;9.00;2.60;;;;;;;3.56;87.14;98737.96;103585;1300;24182;-25
2022/01/17 08:50:22;;;;;;;13.10;5.50;;;;;;;3.60;87.44;98749.78;103589;1300;24242;-29
2022/01/17 08:52:48;;;;;;;7.70;3.30;;;;;;;3.60;87.70;98752.57;103561;1300;24255;-27
2022/01/17 08:55:15;;;;;;;7.70;2.60;;;;;;;3.50;88.04;98729.81;103577;1300;24206;-29
2022/01/17 08:57:41;;;;;;;5.30;3.80;;;;;;;3.38;88.77;98751.29;103626;1300;24310;-27
2022/01/17 09:00:10;;;;;;;6.10;3.40;;;;;;;3.42;89.32;98756.83;103644;1300;24220;-29
2022/01/17 09:02:35;;;;;;;11.70;3.00;;;;;;;3.39;89.75;98753.10;103604;1300;24210;-24
2022/01/17 09:05:02;;;;;;;11.60;4.30;;;;;;;3.53;88.99;98754.26;103662;1300;24171;-26
2022/01/17 09:07:28;;;;;;;7.00;1.70;;;;;;;3.20;90.65;98755.35;103574;1300;24425;-32
2022/01/17 09:09:54;;;;;;;30.90;3.70;;;;;;;3.37;89.57;98758.11;103596;1300;24197;-26
2022/01/17 09:12:20;;;;;;;6.60;4.60;;;;;;;3.29;90.42;98745.67;103646;1300;22616;-25
2022/01/17 09:14:46;;;;;;;4.70;3.20;;;;;;;3.25;90.71;98741.75;103649;1300;22784;-26
2022/01/17 09:17:12;;;;;;;5.50;2.40;;;;;;;3.30;91.32;98752.81;103679;1299;24206;-30
2022/01/17 09:19:39;;;;;;;6.70;3.30;;;;;;;3.20;91.48;98746.14;103617;1300;24328;-26
2022/01/17 09:22:06;;;;;;;4.50;2.50;;;;;;;3.15;92.07;98741.73;103561;1300;22512;-31
2022/01/17 09:24:34;;;;;;;6.20;2.90;;;;;;;3.17;91.80;98770.14;103594;1300;24338;-25
2022/01/17 09:27:01;;;;;;;7.20;2.80;;;;;;;3.21;91.48;98759.11;103630;1300;24427;-25
2022/01/17 09:29:28;;;;;;;2.70;1.50;;;;;;;3.05;92.62;98779.98;103606;1302;24216;-26
2022/01/17 09:31:54;;;;;;;1.10;0.80;;;;;;;3.32;91.27;98749.23;103620;1300;24169;-31
2022/01/17 09:34:21;;;;;;;5.30;3.10;;;;;;;3.21;91.55;98736.09;103595;1300;24306;-30
2022/01/17 09:36:47;;;;;;;5.40;2.50;;;;;;;3.28;91.27;98737.33;103513;1300;24214;-30
2022/01/17 09:39:13;;;;;;;8.50;2.80;;;;;;;3.23;90.82;98720.01;103691;1299;24262;-30
2022/01/17 09:41:39;;;;;;;6.60;3.60;;;;;;;3.36;91.12;98724.70;103512;1300;24190;-22
2022/01/17 09:44:05;;;;;;;5.50;1.70;;;;;;;3.42;90.67;98713.89;103588;1300;24257;-29
2022/01/17 09:46:37;;;;;;;6.60;2.50;;;;;;;3.34;90.58;98697.68;103563;1300;24333;-32
2022/01/17 09:49:14;;;;;;;4.40;1.70;;;;;;;3.30;91.48;98697.64;103595;1300;24394;-30
2022/01/17 09:54:13;;;;;;;16.80;8.40;;;;;;;3.19;92.94;98687.34;103630;1300;24249;-30
2022/01/17 09:56:39;;;;;;;6.80;5.00;;;;;;;3.37;91.90;98683.06;103532;1297;24358;-24
2022/01/17 09:59:05;;;;;;;19.60;9.70;;;;;;;3.44;91.37;98685.14;103505;1300;24125;-25
2022/01/17 10:01:32;;;;;;;5.80;2.50;;;;;;;3.16;93.14;98691.55;103601;1300;24285;-30
2022/01/17 10:04:02;;;;;;;5.80;4.60;;;;;;;3.39;93.00;98681.05;103613;1300;24193;-30
2022/01/17 10:06:28;;;;;;;6.60;3.80;;;;;;;3.53;92.53;98667.70;103561;1300;25021;-24
2022/01/17 10:09:03;;;;;;;10.20;4.40;;;;;;;3.52;91.56;98654.36;103611;1300;24172;-26
2022/01/17 10:11:29;;;;;;;10.20;5.70;;;;;;;3.31;92.58;98668.51;103602;1300;23956;-26
2022/01/17 10:13:56;;;;;;;20.80;11.60;;;;;;;3.35;93.37;98670.70;103601;1300;24194;-29
2022/01/17 10:16:23;;;;;;;6.70;3.40;;;;;;;3.33;93.51;98653.45;103633;1300;24427;-30
2022/01/17 10:18:55;;;;;;;2.90;2.00;;;;;;;3.40;93.16;98666.27;103571;1300;23975;-30
2022/01/17 10:21:26;;;;;;;7.20;2.40;;;;;;;3.41;93.08;98661.55;103538;1300;22531;-24
2022/01/17 10:26:50;;;;;;;2.60;1.70;;;;;;;3.62;92.42;98657.64;103572;1300;22886;-29
2022/01/17 10:36:44;;;;;;;2.80;1.80;;;;;;;3.61;92.80;98638.29;103472;1301;24274;-28
2022/01/17 10:39:10;;;;;;;5.90;1.30;;;;;;;3.80;92.67;98622.52;103495;1300;24226;-30
2022/01/17 10:41:36;;;;;;;7.30;0.50;;;;;;;3.81;92.09;98603.29;103566;1300;24330;-30
2022/01/17 10:44:02;;;;;;;1.40;1.20;;;;;;;3.64;93.12;98625.56;103510;1302;24174;-24
2022/01/17 10:46:28;;;;;;;3.00;2.50;;;;;;;3.74;93.26;98604.45;103505;1302;24279;-30
2022/01/17 10:48:56;;;;;;;3.10;1.60;;;;;;;3.62;93.49;98606.12;103537;1301;24501;-29
2022/01/17 10:51:27;;;;;;;3.20;2.10;;;;;;;3.50;94.33;98623.61;103530;1301;25356;-27
2022/01/17 10:53:53;;;;;;;5.50;3.30;;;;;;;3.77;93.32;98622.16;103538;1300;26285;-30
2022/01/17 10:56:23;;;;;;;9.30;2.40;;;;;;;3.82;92.79;98620.80;103521;1302;22510;-24
2022/01/17 10:58:49;;;;;;;5.20;2.70;;;;;;;3.67;93.19;98615.47;103489;1302;24225;-22
2022/01/17 11:01:16;;;;;;;8.30;3.30;;;;;;;3.93;92.40;98615.66;103560;1301;24306;-25
2022/01/17 11:03:42;;;;;;;12.00;5.60;;;;;;;3.70;93.35;98607.71;103483;1302;24213;-30
2022/01/17 11:06:10;;;;;;;5.80;2.70;;;;;;;3.38;95.54;98621.75;103456;1302;24220;-30
2022/01/17 11:08:36;;;;;;;13.60;5.70;;;;;;;3.45;95.74;98627.02;103538;1302;24214;-25
2022/01/17 11:11:05;;;;;;;10.70;5.20;;;;;;;3.54;95.34;98634.33;103496;1302;25407;-30
2022/01/17 11:13:32;;;;;;;19.80;9.10;;;;;;;3.72;94.76;98667.89;103534;1301;24188;-32
2022/01/17 11:16:00;;;;;;;10.30;4.30;;;;;;;3.70;94.88;98659.98;103516;1301;24193;-25
2022/01/17 11:18:28;;;;;;;7.20;1.00;;;;;;;3.41;96.17;98668.99;103519;1300;24330;-25
2022/01/17 11:20:55;;;;;;;1.90;0.90;;;;;;;3.20;97.63;98710.72;103539;1300;24349;-25
2022/01/17 11:23:22;;;;;;;0.70;0.50;;;;;;;2.80;99.57;98783.13;103574;1300;24454;-25
2022/01/17 11:29:28;;;;;;;2.90;0.60;;;;;;;0.85;99.54;98945.27;103661;1301;25107;-32
2022/01/17 11:31:54;;;;;;;0.30;0.20;;;;;;;-0.06;99.34;98961.89;103527;1302;24386;-25
2022/01/17 11:34:20;;;;;;;1.30;0.30;;;;;;;-0.44;100.00;98960.94;103613;1302;24221;-29
2022/01/17 11:36:46;;;;;;;0.40;0.20;;;;;;;-0.64;100.00;98957.09;103555;1302;24217;-26
2022/01/17 11:39:15;;;;;;;4.10;0.40;;;;;;;-0.86;100.00;98958.48;103576;1302;24366;-31
2022/01/17 11:41:48;;;;;;;0.60;0.10;;;;;;;-0.89;100.00;98962.08;103516;1302;24067;-33
2022/01/17 11:44:14;;;;;;;0.70;0.20;;;;;;;-0.94;100.00;98964.45;103417;1302;24416;-25
2022/01/17 11:46:46;;;;;;;9.70;0.50;;;;;;;-1.00;100.00;98967.59;103483;1302;24327;-31
2022/01/17 11:49:12;;;;;;;0.20;0.10;;;;;;;-1.02;100.00;98974.63;103518;1300;24332;-26
2022/01/17 11:51:40;;;;;;;1.70;0.50;;;;;;;-1.03;100.00;98982.45;103529;1301;24211;-31
2022/01/17 11:54:09;;;;;;;2.70;1.00;;;;;;;-0.97;100.00;98975.85;103574;1300;24324;-26
2022/01/17 11:56:38;;;;;;;1.00;0.40;;;;;;;-0.91;100.00;98968.21;103561;1301;24327;-31
2022/01/17 11:59:10;;;;;;;0.20;0.20;;;;;;;-0.98;100.00;98963.23;103556;1300;24300;-25
2022/01/17 12:01:36;;;;;;;0.90;0.50;;;;;;;-0.85;100.00;98977.05;103513;1302;26127;-31